createdAt,value
2022-11-29T00:01:42.731Z,100483.88
2022-11-29T00:04:12.904Z,100490.81
2022-11-29T00:06:41.514Z,100482.13
2022-11-29T00:09:14.020Z,100493.41
2022-11-29T00:12:00.837Z,100479.50
2022-11-29T00:14:30.326Z,100489.91
2022-11-29T00:17:02.141Z,100488.16
2022-11-29T00:19:33.250Z,100485.53
2022-11-29T00:22:02.892Z,100485.53
2022-11-29T00:24:32.608Z,100475.97
2022-11-29T00:27:02.039Z,100478.56
2022-11-29T00:29:31.268Z,100483.78
2022-11-29T00:31:59.865Z,100475.94
2022-11-29T00:34:28.788Z,100480.28
2022-11-29T00:36:58.549Z,100481.13
2022-11-29T00:39:27.241Z,100480.28
2022-11-29T00:41:56.129Z,100486.34
2022-11-29T00:44:25.187Z,100482.03
2022-11-29T00:46:53.808Z,100479.44
2022-11-29T00:49:22.454Z,100483.75
2022-11-29T00:51:51.084Z,100485.47
2022-11-29T00:54:21.412Z,100481.13
2022-11-29T00:56:49.986Z,100485.47
2022-11-29T00:59:18.550Z,100485.47
2022-11-29T01:01:47.216Z,100492.44
2022-11-29T01:04:15.920Z,100489.81
2022-11-29T01:06:44.635Z,100492.44
2022-11-29T01:09:13.222Z,100491.50
2022-11-29T01:11:42.923Z,100487.16
2022-11-29T01:14:13.256Z,100492.38
2022-11-29T01:16:41.836Z,100497.56
2022-11-29T01:19:10.640Z,100498.41
2022-11-29T01:21:39.191Z,100499.28
2022-11-29T01:24:07.971Z,100494.94
2022-11-29T01:26:36.289Z,100503.69
2022-11-29T01:29:05.868Z,100494.09
2022-11-29T01:31:36.429Z,100501.03
2022-11-29T01:34:07.374Z,100504.53
2022-11-29T01:36:36.307Z,100509.75
2022-11-29T01:39:07.542Z,100504.53
2022-11-29T01:41:37.772Z,100506.25
2022-11-29T01:44:47.047Z,100505.44
2022-11-29T01:47:16.787Z,100510.66
2022-11-29T01:49:48.802Z,100513.25
2022-11-29T01:52:22.350Z,100507.16
2022-11-29T01:54:53.668Z,100516.72
2022-11-29T01:57:22.874Z,100506.28
2022-11-29T01:59:58.043Z,100506.28
2022-11-29T02:02:34.947Z,100511.50
2022-11-29T02:05:05.971Z,100511.50
2022-11-29T02:07:34.753Z,100514.09
2022-11-29T02:10:04.451Z,100508.91
2022-11-29T02:12:48.682Z,100508.06
2022-11-29T02:15:33.462Z,100515.03
2022-11-29T02:18:09.228Z,100515.94
2022-11-29T02:21:35.464Z,100513.34
2022-11-29T02:24:50.563Z,100516.84
2022-11-29T02:28:26.098Z,100515.13
2022-11-29T02:31:46.479Z,100513.41
2022-11-29T02:35:02.202Z,100513.41
2022-11-29T02:38:04.184Z,100520.34
2022-11-29T02:40:55.977Z,100509.06
2022-11-29T02:43:48.051Z,100517.78
2022-11-29T02:46:40.383Z,100515.16
2022-11-29T02:49:22.480Z,100519.53
2022-11-29T02:51:59.835Z,100523.84
2022-11-29T02:54:37.084Z,100522.09
2022-11-29T02:57:19.074Z,100524.69
2022-11-29T02:59:58.155Z,100530.78
2022-11-29T03:02:36.783Z,100525.56
2022-11-29T03:05:18.510Z,100529.88
2022-11-29T03:07:57.109Z,100531.63
2022-11-29T03:10:36.355Z,100529.06
2022-11-29T03:13:15.501Z,100534.28
2022-11-29T03:15:53.848Z,100532.53
2022-11-29T03:18:35.736Z,100538.63
2022-11-29T03:21:19.549Z,100536.88
2022-11-29T03:23:52.394Z,100539.50
2022-11-29T03:26:27.794Z,100544.72
2022-11-29T03:29:07.144Z,100544.72
2022-11-29T03:31:40.370Z,100551.69
2022-11-29T03:34:20.424Z,100545.59
2022-11-29T03:36:59.394Z,100539.53
2022-11-29T03:39:42.246Z,100542.13
2022-11-29T03:42:17.183Z,100547.34
2022-11-29T03:44:56.042Z,100549.06
2022-11-29T03:47:31.752Z,100543.88
2022-11-29T03:50:07.280Z,100547.34
2022-11-29T03:52:43.790Z,100547.34
2022-11-29T03:55:32.540Z,100546.50
2022-11-29T03:58:23.479Z,100555.19
2022-11-29T04:01:31.012Z,100548.22
2022-11-29T04:05:01.112Z,100551.72
2022-11-29T04:07:46.200Z,100559.53
2022-11-29T04:11:00.717Z,100553.47
2022-11-29T04:14:02.136Z,100552.63
2022-11-29T04:17:35.000Z,100556.97
2022-11-29T04:20:55.303Z,100550.91
2022-11-29T04:24:32.180Z,100564.78
2022-11-29T04:27:31.874Z,100569.16
2022-11-29T04:30:14.802Z,100563.97
2022-11-29T04:33:33.247Z,100563.97
2022-11-29T04:36:35.553Z,100578.72
2022-11-29T04:39:33.187Z,100577.88
2022-11-29T04:42:47.643Z,100581.34
2022-11-29T04:45:52.568Z,100590.00
2022-11-29T04:49:13.299Z,100587.41
2022-11-29T04:52:02.531Z,100585.66
2022-11-29T04:54:40.335Z,100588.25
2022-11-29T04:57:17.444Z,100584.78
2022-11-29T04:59:58.144Z,100593.47
2022-11-29T05:02:37.976Z,100589.13
2022-11-29T05:05:22.715Z,100586.50
2022-11-29T05:08:02.559Z,100581.31
2022-11-29T05:10:45.906Z,100593.44
2022-11-29T05:13:25.683Z,100595.16
2022-11-29T05:16:32.111Z,100606.47
2022-11-29T05:19:40.597Z,100606.47
2022-11-29T05:22:25.661Z,100607.38
2022-11-29T05:24:59.529Z,100604.78
2022-11-29T05:27:42.588Z,100610.00
2022-11-29T05:30:15.896Z,100616.94
2022-11-29T05:32:58.439Z,100616.06
2022-11-29T05:35:53.282Z,100616.06
2022-11-29T05:38:53.511Z,100616.06
2022-11-29T05:41:47.292Z,100619.56
2022-11-29T05:44:22.957Z,100621.28
2022-11-29T05:46:58.784Z,100624.78
2022-11-29T05:49:40.694Z,100622.16
2022-11-29T05:52:25.284Z,100625.63
2022-11-29T05:55:23.859Z,100628.25
2022-11-29T05:58:00.105Z,100629.13
2022-11-29T06:00:33.798Z,100630.84
2022-11-29T06:03:16.232Z,100630.84
2022-11-29T06:05:54.354Z,100633.47
2022-11-29T06:08:36.223Z,100642.16
2022-11-29T06:11:14.643Z,100649.09
2022-11-29T06:14:01.465Z,100641.31
2022-11-29T06:17:18.831Z,100646.53
2022-11-29T06:20:29.571Z,100654.34
2022-11-29T06:23:37.529Z,100660.47
2022-11-29T06:26:24.063Z,100668.28
2022-11-29T06:29:06.780Z,100668.28
2022-11-29T06:31:40.520Z,100674.34
2022-11-29T06:34:17.607Z,100675.22
2022-11-29T06:36:52.942Z,100670.88
2022-11-29T06:39:23.555Z,100676.09
2022-11-29T06:41:51.762Z,100676.97
2022-11-29T06:44:21.350Z,100683.91
2022-11-29T06:46:56.321Z,100681.28
2022-11-29T06:49:28.654Z,100688.25
2022-11-29T06:52:11.852Z,100690.00
2022-11-29T06:55:09.340Z,100690.84
2022-11-29T06:57:57.129Z,100695.22
2022-11-29T07:00:29.344Z,100691.75
2022-11-29T07:03:25.428Z,100695.22
2022-11-29T07:05:54.526Z,100697.81
2022-11-29T07:08:25.416Z,100707.38
2022-11-29T07:10:56.632Z,100709.09
2022-11-29T07:13:25.711Z,100713.44
2022-11-29T07:16:03.043Z,100708.22
2022-11-29T07:18:41.403Z,100713.41
2022-11-29T07:21:25.133Z,100709.94
2022-11-29T07:24:03.637Z,100716.03
2022-11-29T07:26:41.979Z,100723.84
2022-11-29T07:29:25.394Z,100723.84
2022-11-29T07:32:09.071Z,100723.84
2022-11-29T07:34:47.547Z,100727.31
2022-11-29T07:37:25.365Z,100734.25
2022-11-29T07:40:03.927Z,100729.91
2022-11-29T07:42:55.387Z,100729.00
2022-11-29T07:45:29.244Z,100726.41
2022-11-29T07:47:57.743Z,100734.19
2022-11-29T07:50:27.718Z,100731.59
2022-11-29T07:52:56.894Z,100739.38
2022-11-29T07:55:29.591Z,100738.50
2022-11-29T07:57:59.257Z,100739.34
2022-11-29T08:00:27.771Z,100741.94
2022-11-29T08:02:56.288Z,100737.56
2022-11-29T08:05:24.961Z,100737.53
2022-11-29T08:07:54.533Z,100746.19
2022-11-29T08:10:23.426Z,100742.69
2022-11-29T08:12:52.554Z,100740.06
2022-11-29T08:15:25.098Z,100742.63
2022-11-29T08:17:54.172Z,100747.81
2022-11-29T08:20:22.830Z,100750.41
2022-11-29T08:22:58.890Z,100747.78
2022-11-29T08:25:28.705Z,100752.97
2022-11-29T08:27:57.898Z,100756.44
2022-11-29T08:30:27.555Z,100760.75
2022-11-29T08:32:55.864Z,100765.06
2022-11-29T08:35:25.318Z,100758.09
2022-11-29T08:37:55.360Z,100761.56
2022-11-29T08:40:24.124Z,100765.91
2022-11-29T08:42:52.822Z,100768.47
2022-11-29T08:45:21.473Z,100775.38
2022-11-29T08:47:51.063Z,100774.50
2022-11-29T08:50:19.746Z,100772.75
2022-11-29T08:53:07.774Z,100775.31
2022-11-29T08:55:39.806Z,100781.41
2022-11-29T08:58:10.520Z,100781.34
2022-11-29T09:00:40.452Z,100785.69
2022-11-29T09:03:27.518Z,100783.03
2022-11-29T09:05:57.448Z,100788.25
2022-11-29T09:08:25.973Z,100794.31
2022-11-29T09:10:54.915Z,100790.84
2022-11-29T09:13:23.431Z,100794.28
2022-11-29T09:15:52.056Z,100797.75
2022-11-29T09:18:22.683Z,100802.94
2022-11-29T09:20:50.878Z,100799.44
2022-11-29T09:23:19.368Z,100808.13
2022-11-29T09:25:50.407Z,100813.31
2022-11-29T09:28:18.983Z,100810.69
2022-11-29T09:30:47.494Z,100813.31
2022-11-29T09:33:16.060Z,100813.28
2022-11-29T09:35:45.843Z,100820.22
2022-11-29T09:38:14.779Z,100823.69
2022-11-29T09:40:52.430Z,100825.41
2022-11-29T09:43:31.786Z,100832.38
2022-11-29T09:46:08.554Z,100829.78
2022-11-29T09:48:56.004Z,100832.38
2022-11-29T09:51:32.395Z,100826.25
2022-11-29T09:54:23.556Z,100831.50
2022-11-29T09:56:54.438Z,100830.56
2022-11-29T09:59:28.885Z,100823.56
2022-11-29T10:02:04.946Z,100825.28
2022-11-29T10:04:42.039Z,100827.00
2022-11-29T10:07:21.738Z,100828.72
2022-11-29T10:09:56.333Z,100833.06
2022-11-29T10:12:32.729Z,100829.53
2022-11-29T10:15:08.409Z,100829.50
2022-11-29T10:17:44.445Z,100826.91
2022-11-29T10:20:18.127Z,100826.03
2022-11-29T10:22:55.464Z,100819.91
2022-11-29T10:25:27.167Z,100829.50
2022-11-29T10:27:55.893Z,100823.38
2022-11-29T10:30:24.679Z,100826.84
2022-11-29T10:32:59.224Z,100821.59
2022-11-29T10:35:29.399Z,100822.44
2022-11-29T10:40:57.108Z,100821.53
2022-11-29T10:43:26.275Z,100816.31
2022-11-29T10:45:56.976Z,100817.16
2022-11-29T10:48:31.644Z,100820.63
2022-11-29T10:51:01.663Z,100817.97
2022-11-29T10:53:36.790Z,100824.06
2022-11-29T10:56:10.535Z,100820.50
2022-11-29T10:58:56.913Z,100826.59
2022-11-29T11:01:28.905Z,100826.56
2022-11-29T11:04:00.159Z,100823.94
2022-11-29T11:06:43.065Z,100822.19
2022-11-29T11:09:22.342Z,100827.38
2022-11-29T11:11:56.060Z,100824.75
2022-11-29T11:14:27.953Z,100816.88
2022-11-29T11:16:57.295Z,100829.94
2022-11-29T11:19:31.920Z,100829.06
2022-11-29T11:22:02.840Z,100819.53
2022-11-29T11:24:37.036Z,100823.03
2022-11-29T11:27:05.578Z,100822.19
2022-11-29T11:29:38.741Z,100819.53
2022-11-29T11:32:17.502Z,100817.75
2022-11-29T11:34:53.363Z,100823.81
2022-11-29T11:37:26.143Z,100824.66
2022-11-29T11:39:58.721Z,100829.84
2022-11-29T11:42:38.582Z,100826.34
2022-11-29T11:45:33.586Z,100826.34
2022-11-29T11:48:06.551Z,100835.03
2022-11-29T11:50:38.724Z,100833.28
2022-11-29T11:53:18.900Z,100840.19
2022-11-29T11:55:59.136Z,100841.91
2022-11-29T11:58:29.883Z,100837.56
2022-11-29T12:01:05.024Z,100838.38
2022-11-29T12:03:50.950Z,100836.63
2022-11-29T12:06:29.597Z,100842.69
2022-11-29T12:09:06.272Z,100845.28
2022-11-29T12:11:45.151Z,100838.31
2022-11-29T12:14:22.746Z,100839.13
2022-11-29T12:16:56.316Z,100838.22
2022-11-29T12:19:31.682Z,100839.94
2022-11-29T12:22:07.767Z,100839.91
2022-11-29T12:24:45.316Z,100845.97
2022-11-29T12:27:16.081Z,100845.09
2022-11-29T12:29:44.791Z,100844.22
2022-11-29T12:32:34.229Z,100843.38
2022-11-29T12:35:39.783Z,100857.34
2022-11-29T12:38:24.396Z,100859.97
2022-11-29T12:41:07.713Z,100858.22
2022-11-29T12:43:50.694Z,100857.38
2022-11-29T12:46:25.890Z,100858.25
2022-11-29T12:49:04.504Z,100856.50
2022-11-29T12:51:43.299Z,100858.25
2022-11-29T12:54:48.859Z,100853.03
2022-11-29T12:57:24.636Z,100848.66
2022-11-29T13:00:08.063Z,100855.59
2022-11-29T13:02:59.340Z,100855.59
2022-11-29T13:05:42.295Z,100852.13
2022-11-29T13:08:47.416Z,100853.84
2022-11-29T13:11:22.587Z,100860.75
2022-11-29T13:14:08.313Z,100862.50
2022-11-29T13:16:56.161Z,100864.25
2022-11-29T13:19:34.445Z,100862.50
2022-11-29T13:22:13.344Z,100859.88
2022-11-29T13:24:46.960Z,100872.91
2022-11-29T13:27:23.923Z,100868.59
2022-11-29T13:29:52.763Z,100869.44
2022-11-29T13:32:35.815Z,100869.44
2022-11-29T13:35:12.814Z,100874.69
2022-11-29T13:37:54.791Z,100871.22
2022-11-29T13:40:37.047Z,100867.72
2022-11-29T13:43:16.714Z,100864.22
2022-11-29T13:45:52.740Z,100872.91
2022-11-29T13:48:36.332Z,100867.69
2022-11-29T13:51:32.115Z,100868.53
2022-11-29T13:54:03.685Z,100869.34
2022-11-29T13:56:43.002Z,100869.34
2022-11-29T13:59:22.368Z,100871.97
2022-11-29T14:01:53.806Z,100872.81
2022-11-29T14:04:41.542Z,100871.94
2022-11-29T14:07:14.571Z,100872.81
2022-11-29T14:09:59.386Z,100875.44
2022-11-29T14:12:39.555Z,100886.78
2022-11-29T14:15:23.738Z,100882.44
2022-11-29T14:17:56.314Z,100891.19
2022-11-29T14:20:58.272Z,100889.47
2022-11-29T14:23:37.124Z,100893.84
2022-11-29T14:26:31.034Z,100900.84
2022-11-29T14:29:00.614Z,100896.47
2022-11-29T14:31:56.262Z,100895.66
2022-11-29T14:34:47.809Z,100900.91
2022-11-29T14:37:32.655Z,100900.09
2022-11-29T14:40:13.337Z,100905.34
2022-11-29T14:42:48.575Z,100908.00
2022-11-29T14:45:27.316Z,100908.03
2022-11-29T14:47:56.378Z,100915.91
2022-11-29T14:50:35.646Z,100915.00
2022-11-29T14:53:07.293Z,100917.63
2022-11-29T14:55:39.045Z,100917.66
2022-11-29T14:58:20.513Z,100924.69
2022-11-29T15:01:10.681Z,100922.13
2022-11-29T15:03:49.868Z,100922.97
2022-11-29T15:06:27.890Z,100920.38
2022-11-29T15:09:04.797Z,100926.50
2022-11-29T15:11:50.278Z,100931.72
2022-11-29T15:14:28.513Z,100929.97
2022-11-29T15:17:17.222Z,100930.00
2022-11-29T15:20:03.941Z,100937.84
2022-11-29T15:22:47.148Z,100938.75
2022-11-29T15:25:19.950Z,100940.50
2022-11-29T15:27:54.161Z,100942.25
2022-11-29T15:30:35.910Z,100937.03
2022-11-29T15:33:07.739Z,100937.94
2022-11-29T15:35:37.713Z,100942.28
2022-11-29T15:38:06.251Z,100940.56
2022-11-29T15:40:37.182Z,100943.22
2022-11-29T15:43:18.029Z,100950.19
2022-11-29T15:45:51.166Z,100949.34
2022-11-29T15:48:24.723Z,100956.38
2022-11-29T15:51:04.063Z,100963.31
2022-11-29T15:53:40.065Z,100957.22
2022-11-29T15:56:16.239Z,100965.97
2022-11-29T15:58:46.091Z,100958.13
2022-11-29T16:01:21.824Z,100968.59
2022-11-29T16:03:53.677Z,100973.81
2022-11-29T16:06:30.263Z,100966.00
2022-11-29T16:08:59.284Z,100974.72
2022-11-29T16:11:31.604Z,100975.56
2022-11-29T16:14:13.800Z,100974.72
2022-11-29T16:16:45.988Z,100977.31
2022-11-29T16:19:26.710Z,100972.09
2022-11-29T16:22:18.675Z,100974.72
2022-11-29T16:25:03.701Z,100974.72
2022-11-29T16:27:35.006Z,100975.63
2022-11-29T16:30:05.423Z,100978.25
2022-11-29T16:32:37.393Z,100976.50
2022-11-29T16:35:16.359Z,100984.34
2022-11-29T16:37:46.410Z,100982.59
2022-11-29T16:40:24.474Z,100985.22
2022-11-29T16:43:23.753Z,100983.50
2022-11-29T16:46:34.186Z,100987.88
2022-11-29T16:49:25.413Z,100988.75
2022-11-29T16:51:54.811Z,100992.25
2022-11-29T16:54:25.815Z,100993.13
2022-11-29T16:56:56.827Z,100990.50
2022-11-29T16:59:28.590Z,100995.72
2022-11-29T17:01:57.579Z,100996.63
2022-11-29T17:04:26.255Z,100992.25
2022-11-29T17:06:56.167Z,100986.16
2022-11-29T17:09:27.427Z,100987.03
2022-11-29T17:11:56.503Z,100990.50
2022-11-29T17:14:26.618Z,100983.56
2022-11-29T17:16:55.060Z,100993.16
2022-11-29T17:19:23.981Z,100996.66
2022-11-29T17:21:53.051Z,100995.75
2022-11-29T17:24:25.317Z,101002.78
2022-11-29T17:26:53.918Z,101001.03
2022-11-29T17:29:22.392Z,101001.94
2022-11-29T17:31:53.216Z,101001.94
2022-11-29T17:34:22.138Z,101001.97
2022-11-29T17:36:51.993Z,101001.97
2022-11-29T17:39:21.577Z,101001.97
2022-11-29T17:41:50.312Z,101008.13
2022-11-29T17:44:19.067Z,101007.25
2022-11-29T17:46:47.643Z,101008.16
2022-11-29T17:49:18.586Z,101017.72
2022-11-29T17:51:52.147Z,101020.34
2022-11-29T17:54:21.917Z,101020.38
2022-11-29T17:56:50.443Z,101021.22
2022-11-29T17:59:18.833Z,101022.09
2022-11-29T18:01:48.010Z,101029.94
2022-11-29T18:04:18.001Z,101023.84
2022-11-29T18:06:49.855Z,101022.94
2022-11-29T18:09:20.181Z,101028.19
2022-11-29T18:11:50.866Z,101034.28
2022-11-29T18:14:22.721Z,101034.28
2022-11-29T18:16:51.885Z,101036.88
2022-11-29T18:19:24.407Z,101037.75
2022-11-29T18:21:53.263Z,101035.13
2022-11-29T18:24:21.802Z,101048.16
2022-11-29T18:26:50.410Z,101041.22
2022-11-29T18:29:18.730Z,101046.44
2022-11-29T18:31:48.003Z,101049.06
2022-11-29T18:34:16.662Z,101049.94
2022-11-29T18:36:48.407Z,101051.66
2022-11-29T18:39:19.246Z,101051.69
2022-11-29T18:41:50.054Z,101053.44
2022-11-29T18:44:21.483Z,101056.94
2022-11-29T18:46:50.015Z,101059.59
2022-11-29T18:49:20.467Z,101058.75
2022-11-29T18:51:51.500Z,101057.03
2022-11-29T18:54:20.487Z,101064.00
2022-11-29T18:56:51.658Z,101064.03
2022-11-29T18:59:19.942Z,101057.09
2022-11-29T19:01:48.918Z,101057.09
2022-11-29T19:04:20.154Z,101065.75
2022-11-29T19:06:50.262Z,101064.91
2022-11-29T19:09:21.920Z,101053.56
2022-11-29T19:11:51.136Z,101060.50
2022-11-29T19:14:20.110Z,101064.00
2022-11-29T19:16:50.061Z,101062.25
2022-11-29T19:19:19.638Z,101063.97
2022-11-29T19:21:49.782Z,101063.97
2022-11-29T19:24:19.309Z,101069.22
2022-11-29T19:26:50.436Z,101065.72
2022-11-29T19:29:19.039Z,101070.09
2022-11-29T19:31:47.561Z,101069.22
2022-11-29T19:34:16.126Z,101077.97
2022-11-29T19:36:45.465Z,101064.03
2022-11-29T19:39:17.764Z,101067.56
2022-11-29T19:41:47.668Z,101076.25
2022-11-29T19:44:16.374Z,101071.06
2022-11-29T19:46:48.468Z,101074.56
2022-11-29T19:49:17.164Z,101072.84
2022-11-29T19:51:45.935Z,101072.84
2022-11-29T19:54:15.707Z,101069.34
2022-11-29T19:56:44.399Z,101075.41
2022-11-29T19:59:12.924Z,101076.28
2022-11-29T20:01:42.882Z,101079.78
2022-11-29T20:04:13.987Z,101078.91
2022-11-29T20:06:42.682Z,101084.16
2022-11-29T20:09:11.756Z,101077.16
2022-11-29T20:11:41.443Z,101086.75
2022-11-29T20:14:12.683Z,101080.66
2022-11-29T20:16:41.749Z,101083.28
2022-11-29T20:19:12.912Z,101091.97
2022-11-29T20:21:44.589Z,101095.47
2022-11-29T20:24:14.318Z,101090.25
2022-11-29T20:26:46.576Z,101095.50
2022-11-29T20:29:16.124Z,101097.25
2022-11-29T20:31:50.185Z,101098.09
2022-11-29T20:34:20.681Z,101097.28
2022-11-29T20:37:30.105Z,101104.25
2022-11-29T20:40:03.534Z,101105.97
2022-11-29T20:42:59.103Z,101110.38
2022-11-29T20:45:28.484Z,101106.00
2022-11-29T20:48:03.599Z,101106.00
2022-11-29T20:50:33.919Z,101106.00
2022-11-29T20:53:19.513Z,101104.28
2022-11-29T20:55:49.776Z,101099.09
2022-11-29T20:58:19.753Z,101110.41
2022-11-29T21:00:48.561Z,101103.47
2022-11-29T21:03:18.562Z,101108.66
2022-11-29T21:05:47.504Z,101103.47
2022-11-29T21:08:18.903Z,101104.34
2022-11-29T21:10:47.405Z,101111.34
2022-11-29T21:13:19.531Z,101105.28
2022-11-29T21:15:49.135Z,101097.47
2022-11-29T21:18:24.330Z,101100.94
2022-11-29T21:21:09.663Z,101102.72
2022-11-29T21:23:51.952Z,101101.00
2022-11-29T21:26:26.816Z,101106.22
2022-11-29T21:29:13.000Z,101108.84
2022-11-29T21:31:42.138Z,101104.47
2022-11-29T21:34:10.724Z,101109.69
2022-11-29T21:36:41.046Z,101112.31
2022-11-29T21:39:14.160Z,101113.16
2022-11-29T21:41:42.762Z,101118.41
2022-11-29T21:44:12.306Z,101124.50
2022-11-29T21:46:40.665Z,101121.00
2022-11-29T21:49:09.288Z,101124.50
2022-11-29T21:51:37.841Z,101116.66
2022-11-29T21:54:06.419Z,101124.50
2022-11-29T21:56:35.342Z,101121.00
2022-11-29T21:59:03.854Z,101121.00
2022-11-29T22:01:33.983Z,101123.59
2022-11-29T22:04:03.575Z,101123.59
2022-11-29T22:06:31.842Z,101130.56
2022-11-29T22:09:00.727Z,101127.94
2022-11-29T22:11:31.864Z,101138.38
2022-11-29T22:14:17.984Z,101131.41
2022-11-29T22:16:50.004Z,101142.75
2022-11-29T22:19:20.168Z,101141.00
2022-11-29T22:21:51.909Z,101134.03
2022-11-29T22:24:22.732Z,101134.06
2022-11-29T22:26:52.710Z,101133.16
2022-11-29T22:29:21.411Z,101134.91
2022-11-29T22:31:54.103Z,101135.78
2022-11-29T22:34:25.048Z,101141.00
2022-11-29T22:36:53.808Z,101135.78
2022-11-29T22:39:22.493Z,101135.78
2022-11-29T22:41:54.701Z,101137.56
2022-11-29T22:44:23.923Z,101132.31
2022-11-29T22:46:53.703Z,101134.03
2022-11-29T22:49:22.417Z,101144.50
2022-11-29T22:51:50.942Z,101140.16
2022-11-29T22:54:20.215Z,101137.56
2022-11-29T22:56:49.082Z,101131.47
2022-11-29T22:59:17.830Z,101137.56
2022-11-29T23:01:46.911Z,101135.81
2022-11-29T23:04:16.643Z,101133.22
2022-11-29T23:06:46.723Z,101128.03
2022-11-29T23:09:19.864Z,101141.06
2022-11-29T23:11:52.030Z,101130.63
2022-11-29T23:14:22.007Z,101134.97
2022-11-29T23:16:50.581Z,101139.34
2022-11-29T23:19:20.396Z,101141.09
2022-11-29T23:21:48.892Z,101145.44
2022-11-29T23:24:17.487Z,101142.00
2022-11-29T23:26:47.974Z,101148.06
2022-11-29T23:29:19.543Z,101143.72
2022-11-29T23:31:50.116Z,101144.59
2022-11-29T23:34:19.946Z,101142.84
2022-11-29T23:36:52.855Z,101142.84
2022-11-29T23:39:21.558Z,101134.19
2022-11-29T23:41:50.107Z,101127.22
2022-11-29T23:44:18.617Z,101132.44
2022-11-29T23:46:47.118Z,101131.59
2022-11-29T23:49:15.711Z,101126.38
2022-11-29T23:51:45.265Z,101123.75
2022-11-29T23:54:13.838Z,101132.44
2022-11-29T23:56:42.336Z,101130.72
2022-11-29T23:59:10.572Z,101129.84
